Lindsborg, Kansas
Current Conditions -  °F | °C
As of 9:18 AM on Friday 31 Oct 2014 (Local Time) from KSLN Reporting Station
Scattered Clouds Scattered Clouds  
Wind Chill: 21°   Ceiling: Unl
Heat Index: 32°   Visibility: 10mi
Dew Point: 22°   Wind: 17mph
Humidity: 66%   Direction: 360°N
Pressure: 30.56"   Gusts: NA
Location:  38.57°N, 97.67°W
Report Text: KSLN 311418Z 36015KT 10SM SCT021 00/M06 A3056 RMK AO2 T00001056
Loading
Personal Weather Stations






























Interactive Weather Map
Tropical Storm Tracking
New forecast layout! Learn more

10-Day Weather Forecast

Advertisements
Track Severe Weather on mobile